PWSweather.com
Personal Weather Stations
Station Observations
OBSERWACJEMETEO
Skórowo, SkorowoPL 76-230

SkórowoSkorowoPL 76-230

Lat: 54.5030556, Lon: 17.5277777

Elevation: 77

Station Type: WH2080

http://obserwacjemeteo.eu/

High Low Average
Temperature 65.1°F18.4°C 38.8°F3.8°C 50.7°F10.4°C
Dew Point 54.1°F12.3°C 36.4°F2.4°C 44.6°F7.0°C
Winds 2.2 mph 3.5 kmh Calm Calm 1.0 mph E1.6 kmh E
Wind Gusts 5.4 mph8.7 kmh -- 2.0 mph3.2 kmh
Humidity 99% 43% 82%
Pressure 30.28 in1025.4 mb 30.15 in1021.0 mb -
Precipitation 0.00 in0.0 mm - -
Hour Temp Dew Point Humidity Winds Wind Gusts Pressure Precip Precip Rate Daily Precip Total
12:00 AM 40.6°F4.8°C 38.2°F3.4°C 91% Calm Calm 0.7 mph1.1 kmh 30.25 in1024.4 mb 0.00 in0.0 mm 0.00 in0.0 mm 0.00 in0.0 mm
12:10 AM 40.5°F4.7°C 38.0°F3.3°C 91% Calm Calm 0.7 mph1.1 kmh 30.25 in1024.4 mb 0.00 in0.0 mm 0.00 in0.0 mm 0.00 in0.0 mm
12:20 AM 40.3°F4.6°C 37.9°F3.3°C 91% Calm Calm 0.7 mph1.1 kmh 30.26 in1024.7 mb 0.00 in0.0 mm 0.00 in0.0 mm 0.00 in0.0 mm
12:30 AM 39.9°F4.4°C 37.5°F3.1°C 91% Calm Calm -- 30.25 in1024.4 mb 0.00 in0.0 mm 0.00 in0.0 mm 0.00 in0.0 mm
12:40 AM 39.7°F4.3°C 37.3°F2.9°C 91% Calm Calm -- 30.26 in1024.7 mb 0.00 in0.0 mm 0.00 in0.0 mm 0.00 in0.0 mm
12:50 AM 39.7°F4.3°C 37.3°F2.9°C 91% 0.7 mph NW1.1 kmh NW 1.6 mph2.6 kmh 30.26 in1024.7 mb 0.00 in0.0 mm 0.00 in0.0 mm 0.00 in0.0 mm
01:00 AM 40.1°F4.5°C 38.0°F3.3°C 92% Calm Calm 2.2 mph3.5 kmh 30.26 in1024.7 mb 0.00 in0.0 mm 0.00 in0.0 mm 0.00 in0.0 mm
01:10 AM 40.5°F4.7°C 38.3°F3.5°C 92% Calm Calm 0.7 mph1.1 kmh 30.26 in1024.7 mb 0.00 in0.0 mm 0.00 in0.0 mm 0.00 in0.0 mm
01:20 AM 40.5°F4.7°C 38.3°F3.5°C 92% Calm Calm 0.7 mph1.1 kmh 30.26 in1024.7 mb 0.00 in0.0 mm 0.00 in0.0 mm 0.00 in0.0 mm
01:30 AM 40.5°F4.7°C 38.3°F3.5°C 92% Calm Calm 0.7 mph1.1 kmh 30.25 in1024.4 mb 0.00 in0.0 mm 0.00 in0.0 mm 0.00 in0.0 mm
01:40 AM 40.1°F4.5°C 38.0°F3.3°C 92% Calm Calm -- 30.25 in1024.4 mb 0.00 in0.0 mm 0.00 in0.0 mm 0.00 in0.0 mm
01:50 AM 39.7°F4.3°C 37.6°F3.1°C 92% Calm Calm -- 30.25 in1024.4 mb 0.00 in0.0 mm 0.00 in0.0 mm 0.00 in0.0 mm
02:00 AM 39.9°F4.4°C 37.8°F3.2°C 92% Calm Calm 0.7 mph1.1 kmh 30.25 in1024.4 mb 0.00 in0.0 mm 0.00 in0.0 mm 0.00 in0.0 mm
02:10 AM 39.7°F4.3°C 37.6°F3.1°C 92% Calm Calm 0.7 mph1.1 kmh 30.25 in1024.4 mb 0.00 in0.0 mm 0.00 in0.0 mm 0.00 in0.0 mm
02:20 AM 39.6°F4.2°C 37.4°F3.0°C 92% Calm Calm -- 30.26 in1024.7 mb 0.00 in0.0 mm 0.00 in0.0 mm 0.00 in0.0 mm
02:30 AM 39.0°F3.9°C 36.6°F2.6°C 91% Calm Calm -- 30.25 in1024.4 mb 0.00 in0.0 mm 0.00 in0.0 mm 0.00 in0.0 mm
02:40 AM 38.8°F3.8°C 36.4°F2.4°C 91% Calm Calm -- 30.25 in1024.4 mb 0.00 in0.0 mm 0.00 in0.0 mm 0.00 in0.0 mm
02:50 AM 38.8°F3.8°C 36.7°F2.6°C 92% Calm Calm 1.6 mph2.6 kmh 30.25 in1024.4 mb 0.00 in0.0 mm 0.00 in0.0 mm 0.00 in0.0 mm
03:00 AM 39.2°F4.0°C 37.1°F2.8°C 92% Calm Calm 1.6 mph2.6 kmh 30.25 in1024.4 mb 0.00 in0.0 mm 0.00 in0.0 mm 0.00 in0.0 mm
03:10 AM 39.6°F4.2°C 37.7°F3.2°C 93% Calm Calm 1.6 mph2.6 kmh 30.26 in1024.7 mb 0.00 in0.0 mm 0.00 in0.0 mm 0.00 in0.0 mm
03:20 AM 39.7°F4.3°C 37.9°F3.3°C 93% Calm Calm 1.6 mph2.6 kmh 30.25 in1024.4 mb 0.00 in0.0 mm 0.00 in0.0 mm 0.00 in0.0 mm
03:30 AM 39.9°F4.4°C 38.1°F3.4°C 93% Calm Calm 1.6 mph2.6 kmh 30.25 in1024.4 mb 0.00 in0.0 mm 0.00 in0.0 mm 0.00 in0.0 mm
03:40 AM 39.9°F4.4°C 38.1°F3.4°C 93% Calm Calm 0.7 mph1.1 kmh 30.26 in1024.7 mb 0.00 in0.0 mm 0.00 in0.0 mm 0.00 in0.0 mm
03:50 AM 39.9°F4.4°C 38.1°F3.4°C 93% Calm Calm 0.7 mph1.1 kmh 30.25 in1024.4 mb 0.00 in0.0 mm 0.00 in0.0 mm 0.00 in0.0 mm
04:00 AM 39.9°F4.4°C 38.1°F3.4°C 93% Calm Calm -- 30.25 in1024.4 mb 0.00 in0.0 mm 0.00 in0.0 mm 0.00 in0.0 mm
04:10 AM 40.3°F4.6°C 38.4°F3.6°C 93% Calm Calm 0.7 mph1.1 kmh 30.25 in1024.4 mb 0.00 in0.0 mm 0.00 in0.0 mm 0.00 in0.0 mm
04:20 AM 40.3°F4.6°C 38.4°F3.6°C 93% Calm Calm 0.7 mph1.1 kmh 30.25 in1024.4 mb 0.00 in0.0 mm 0.00 in0.0 mm 0.00 in0.0 mm
04:30 AM 40.5°F4.7°C 38.9°F3.8°C 94% Calm Calm -- 30.25 in1024.4 mb 0.00 in0.0 mm 0.00 in0.0 mm 0.00 in0.0 mm
04:40 AM 40.5°F4.7°C 38.6°F3.7°C 93% Calm Calm -- 30.25 in1024.4 mb 0.00 in0.0 mm 0.00 in0.0 mm 0.00 in0.0 mm
04:50 AM 40.3°F4.6°C 38.7°F3.7°C 94% Calm Calm 1.6 mph2.6 kmh 30.26 in1024.7 mb 0.00 in0.0 mm 0.00 in0.0 mm 0.00 in0.0 mm
05:00 AM 40.3°F4.6°C 38.7°F3.7°C 94% Calm Calm 0.7 mph1.1 kmh 30.25 in1024.4 mb 0.00 in0.0 mm 0.00 in0.0 mm 0.00 in0.0 mm
05:10 AM 40.1°F4.5°C 38.5°F3.6°C 94% Calm Calm 0.7 mph1.1 kmh 30.25 in1024.4 mb 0.00 in0.0 mm 0.00 in0.0 mm 0.00 in0.0 mm
05:20 AM 39.9°F4.4°C 38.3°F3.5°C 94% Calm Calm -- 30.25 in1024.4 mb 0.00 in0.0 mm 0.00 in0.0 mm 0.00 in0.0 mm
05:30 AM 39.9°F4.4°C 38.3°F3.5°C 94% Calm Calm 0.7 mph1.1 kmh 30.25 in1024.4 mb 0.00 in0.0 mm 0.00 in0.0 mm 0.00 in0.0 mm
05:40 AM 39.7°F4.3°C 38.2°F3.4°C 94% Calm Calm 0.7 mph1.1 kmh 30.24 in1024.0 mb 0.00 in0.0 mm 0.00 in0.0 mm 0.00 in0.0 mm
05:50 AM 39.6°F4.2°C 38.0°F3.3°C 94% 0.7 mph NE1.1 kmh NE 1.6 mph2.6 kmh 30.25 in1024.4 mb 0.00 in0.0 mm 0.00 in0.0 mm 0.00 in0.0 mm
06:00 AM 39.7°F4.3°C 38.2°F3.4°C 94% Calm Calm 1.6 mph2.6 kmh 30.25 in1024.4 mb 0.00 in0.0 mm 0.00 in0.0 mm 0.00 in0.0 mm
06:10 AM 40.1°F4.5°C 38.5°F3.6°C 94% Calm Calm 0.7 mph1.1 kmh 30.25 in1024.4 mb 0.00 in0.0 mm 0.00 in0.0 mm 0.00 in0.0 mm
06:20 AM 40.1°F4.5°C 38.5°F3.6°C 94% 0.7 mph N1.1 kmh N 1.6 mph2.6 kmh 30.25 in1024.4 mb 0.00 in0.0 mm 0.00 in0.0 mm 0.00 in0.0 mm
06:30 AM 40.5°F4.7°C 38.9°F3.8°C 94% 0.7 mph NE1.1 kmh NE 2.2 mph3.5 kmh 30.25 in1024.4 mb 0.00 in0.0 mm 0.00 in0.0 mm 0.00 in0.0 mm
06:40 AM 40.5°F4.7°C 38.9°F3.8°C 94% Calm Calm 1.6 mph2.6 kmh 30.25 in1024.4 mb 0.00 in0.0 mm 0.00 in0.0 mm 0.00 in0.0 mm
06:50 AM 40.5°F4.7°C 38.9°F3.8°C 94% 0.7 mph NE1.1 kmh NE 1.6 mph2.6 kmh 30.25 in1024.4 mb 0.00 in0.0 mm 0.00 in0.0 mm 0.00 in0.0 mm
07:00 AM 40.8°F4.9°C 39.2°F4.0°C 94% Calm Calm 2.2 mph3.5 kmh 30.25 in1024.4 mb 0.00 in0.0 mm 0.00 in0.0 mm 0.00 in0.0 mm
07:10 AM 41.7°F5.4°C 40.1°F4.5°C 94% 1.6 mph NE2.6 kmh NE 2.2 mph3.5 kmh 30.25 in1024.4 mb 0.00 in0.0 mm 0.00 in0.0 mm 0.00 in0.0 mm
07:20 AM 43.0°F6.1°C 41.6°F5.3°C 95% 0.7 mph ENE1.1 kmh ENE 3.1 mph5.0 kmh 30.26 in1024.7 mb 0.00 in0.0 mm 0.00 in0.0 mm 0.00 in0.0 mm
07:30 AM 44.4°F6.9°C 42.8°F6.0°C 94% 1.6 mph ENE2.6 kmh ENE 3.1 mph5.0 kmh 30.26 in1024.7 mb 0.00 in0.0 mm 0.00 in0.0 mm 0.00 in0.0 mm
07:40 AM 46.9°F8.3°C 43.9°F6.6°C 89% 0.7 mph ENE1.1 kmh ENE 3.1 mph5.0 kmh 30.26 in1024.7 mb 0.00 in0.0 mm 0.00 in0.0 mm 0.00 in0.0 mm
07:50 AM 50.4°F10.2°C 45.1°F7.3°C 82% 1.6 mph NE2.6 kmh NE 3.1 mph5.0 kmh 30.26 in1024.7 mb 0.00 in0.0 mm 0.00 in0.0 mm 0.00 in0.0 mm
08:00 AM 52.5°F11.4°C 45.2°F7.3°C 76% 1.6 mph ENE2.6 kmh ENE 3.1 mph5.0 kmh 30.26 in1024.7 mb 0.00 in0.0 mm 0.00 in0.0 mm 0.00 in0.0 mm
08:10 AM 55.0°F12.8°C 45.8°F7.7°C 71% 1.6 mph NNE2.6 kmh NNE 2.2 mph3.5 kmh 30.25 in1024.4 mb 0.00 in0.0 mm 0.00 in0.0 mm 0.00 in0.0 mm
08:20 AM 56.5°F13.6°C 45.3°F7.4°C 66% Calm Calm 3.1 mph5.0 kmh 30.27 in1025.1 mb 0.00 in0.0 mm 0.00 in0.0 mm 0.00 in0.0 mm
08:30 AM 58.5°F14.7°C 45.5°F7.5°C 62% 0.7 mph W1.1 kmh W 3.1 mph5.0 kmh 30.26 in1024.7 mb 0.00 in0.0 mm 0.00 in0.0 mm 0.00 in0.0 mm
08:40 AM 59.0°F15.0°C 45.6°F7.6°C 61% 0.7 mph E1.1 kmh E 3.1 mph5.0 kmh 30.27 in1025.1 mb 0.00 in0.0 mm 0.00 in0.0 mm 0.00 in0.0 mm
08:50 AM 59.0°F15.0°C 45.1°F7.3°C 60% Calm Calm 3.8 mph6.1 kmh 30.27 in1025.1 mb 0.00 in0.0 mm 0.00 in0.0 mm 0.00 in0.0 mm
09:00 AM 60.8°F16.0°C 47.7°F8.7°C 62% 0.7 mph W1.1 kmh W 1.6 mph2.6 kmh 30.26 in1024.7 mb 0.00 in0.0 mm 0.00 in0.0 mm 0.00 in0.0 mm
09:10 AM 62.6°F17.0°C 45.7°F7.6°C 54% 0.7 mph SSE1.1 kmh SSE 1.6 mph2.6 kmh 30.26 in1024.7 mb 0.00 in0.0 mm 0.00 in0.0 mm 0.00 in0.0 mm
09:20 AM 62.6°F17.0°C 45.2°F7.3°C 53% 1.6 mph SW2.6 kmh SW 3.1 mph5.0 kmh 30.27 in1025.1 mb 0.00 in0.0 mm 0.00 in0.0 mm 0.00 in0.0 mm
09:30 AM 62.8°F17.1°C 43.4°F6.3°C 49% 0.7 mph WSW1.1 kmh WSW 3.8 mph6.1 kmh 30.27 in1025.1 mb 0.00 in0.0 mm 0.00 in0.0 mm 0.00 in0.0 mm
09:40 AM 63.0°F17.2°C 42.4°F5.8°C 47% 1.6 mph SSW2.6 kmh SSW 3.1 mph5.0 kmh 30.27 in1025.1 mb 0.00 in0.0 mm 0.00 in0.0 mm 0.00 in0.0 mm
09:50 AM 61.2°F16.2°C 42.4°F5.8°C 50% 1.6 mph SW2.6 kmh SW 3.1 mph5.0 kmh 30.27 in1025.1 mb 0.00 in0.0 mm 0.00 in0.0 mm 0.00 in0.0 mm
10:00 AM 59.5°F15.3°C 41.9°F5.5°C 52% 0.7 mph SSW1.1 kmh SSW 3.8 mph6.1 kmh 30.27 in1025.1 mb 0.00 in0.0 mm 0.00 in0.0 mm 0.00 in0.0 mm
10:10 AM 58.8°F14.9°C 41.7°F5.4°C 53% 0.7 mph SSW1.1 kmh SSW 2.2 mph3.5 kmh 30.28 in1025.4 mb 0.00 in0.0 mm 0.00 in0.0 mm 0.00 in0.0 mm
10:20 AM 58.5°F14.7°C 41.9°F5.5°C 54% Calm Calm 3.1 mph5.0 kmh 30.27 in1025.1 mb 0.00 in0.0 mm 0.00 in0.0 mm 0.00 in0.0 mm
10:30 AM 58.8°F14.9°C 41.7°F5.4°C 53% Calm Calm 3.1 mph5.0 kmh 30.27 in1025.1 mb 0.00 in0.0 mm 0.00 in0.0 mm 0.00 in0.0 mm
10:40 AM 59.5°F15.3°C 41.9°F5.5°C 52% 0.7 mph WSW1.1 kmh WSW 2.2 mph3.5 kmh 30.27 in1025.1 mb 0.00 in0.0 mm 0.00 in0.0 mm 0.00 in0.0 mm
10:50 AM 63.7°F17.6°C 43.6°F6.4°C 48% 0.7 mph SW1.1 kmh SW 3.1 mph5.0 kmh 30.27 in1025.1 mb 0.00 in0.0 mm 0.00 in0.0 mm 0.00 in0.0 mm
11:00 AM 64.4°F18.0°C 41.4°F5.2°C 43% Calm Calm 3.1 mph5.0 kmh 30.26 in1024.7 mb 0.00 in0.0 mm 0.00 in0.0 mm 0.00 in0.0 mm
11:10 AM 63.5°F17.5°C 40.6°F4.8°C 43% Calm Calm 3.1 mph5.0 kmh 30.26 in1024.7 mb 0.00 in0.0 mm 0.00 in0.0 mm 0.00 in0.0 mm
11:20 AM 61.2°F16.2°C 42.9°F6.1°C 51% 0.7 mph WSW1.1 kmh WSW 2.2 mph3.5 kmh 30.26 in1024.7 mb 0.00 in0.0 mm 0.00 in0.0 mm 0.00 in0.0 mm
11:30 AM 65.1°F18.4°C 46.0°F7.8°C 50% 0.7 mph WNW1.1 kmh WNW 2.2 mph3.5 kmh 30.26 in1024.7 mb 0.00 in0.0 mm 0.00 in0.0 mm 0.00 in0.0 mm
11:40 AM 63.9°F17.7°C 42.7°F5.9°C 46% 0.7 mph S1.1 kmh S 2.2 mph3.5 kmh 30.25 in1024.4 mb 0.00 in0.0 mm 0.00 in0.0 mm 0.00 in0.0 mm
11:50 AM 63.0°F17.2°C 44.6°F7.0°C 51% 1.6 mph SW2.6 kmh SW 3.1 mph5.0 kmh 30.26 in1024.7 mb 0.00 in0.0 mm 0.00 in0.0 mm 0.00 in0.0 mm
12:00 PM 62.2°F16.8°C 42.3°F5.7°C 48% Calm Calm 3.8 mph6.1 kmh 30.25 in1024.4 mb 0.00 in0.0 mm 0.00 in0.0 mm 0.00 in0.0 mm
12:10 PM 60.6°F15.9°C 41.9°F5.5°C 50% 0.7 mph ESE1.1 kmh ESE 3.1 mph5.0 kmh 30.25 in1024.4 mb 0.00 in0.0 mm 0.00 in0.0 mm 0.00 in0.0 mm
12:20 PM 59.0°F15.0°C 40.9°F4.9°C 51% 1.6 mph W2.6 kmh W 4.5 mph7.2 kmh 30.25 in1024.4 mb 0.00 in0.0 mm 0.00 in0.0 mm 0.00 in0.0 mm
12:30 PM 57.6°F14.2°C 41.5°F5.3°C 55% 0.7 mph SW1.1 kmh SW 3.1 mph5.0 kmh 30.25 in1024.4 mb 0.00 in0.0 mm 0.00 in0.0 mm 0.00 in0.0 mm
12:40 PM 56.3°F13.5°C 43.0°F6.1°C 61% 0.7 mph WSW1.1 kmh WSW 5.4 mph8.7 kmh 30.25 in1024.4 mb 0.00 in0.0 mm 0.00 in0.0 mm 0.00 in0.0 mm
12:50 PM 55.8°F13.2°C 44.2°F6.8°C 65% 2.2 mph SW3.5 kmh SW 4.5 mph7.2 kmh 30.25 in1024.4 mb 0.00 in0.0 mm 0.00 in0.0 mm 0.00 in0.0 mm
01:00 PM 55.9°F13.3°C 45.2°F7.3°C 67% 2.2 mph W3.5 kmh W 5.4 mph8.7 kmh 30.25 in1024.4 mb 0.00 in0.0 mm 0.00 in0.0 mm 0.00 in0.0 mm
01:10 PM 56.7°F13.7°C 45.8°F7.7°C 67% 1.6 mph NW2.6 kmh NW 4.5 mph7.2 kmh 30.25 in1024.4 mb 0.00 in0.0 mm 0.00 in0.0 mm 0.00 in0.0 mm
01:20 PM 57.0°F13.9°C 45.8°F7.7°C 66% 0.7 mph SW1.1 kmh SW 3.1 mph5.0 kmh 30.24 in1024.0 mb 0.00 in0.0 mm 0.00 in0.0 mm 0.00 in0.0 mm
01:30 PM 56.3°F13.5°C 44.7°F7.1°C 65% 2.2 mph SW3.5 kmh SW 3.1 mph5.0 kmh 30.25 in1024.4 mb 0.00 in0.0 mm 0.00 in0.0 mm 0.00 in0.0 mm
01:40 PM 55.6°F13.1°C 44.4°F6.9°C 66% 0.7 mph N1.1 kmh N 3.8 mph6.1 kmh 30.24 in1024.0 mb 0.00 in0.0 mm 0.00 in0.0 mm 0.00 in0.0 mm
01:50 PM 55.2°F12.9°C 44.9°F7.2°C 68% Calm Calm 3.1 mph5.0 kmh 30.24 in1024.0 mb 0.00 in0.0 mm 0.00 in0.0 mm 0.00 in0.0 mm
02:00 PM 54.9°F12.7°C 44.9°F7.2°C 69% 1.6 mph W2.6 kmh W 3.1 mph5.0 kmh 30.24 in1024.0 mb 0.00 in0.0 mm 0.00 in0.0 mm 0.00 in0.0 mm
02:10 PM 55.0°F12.8°C 45.4°F7.4°C 70% Calm Calm 3.1 mph5.0 kmh 30.24 in1024.0 mb 0.00 in0.0 mm 0.00 in0.0 mm 0.00 in0.0 mm
02:20 PM 55.9°F13.3°C 46.3°F7.9°C 70% Calm Calm 1.6 mph2.6 kmh 30.23 in1023.7 mb 0.00 in0.0 mm 0.00 in0.0 mm 0.00 in0.0 mm
02:30 PM 56.5°F13.6°C 46.1°F7.8°C 68% 1.6 mph ENE2.6 kmh ENE 3.8 mph6.1 kmh 30.22 in1023.4 mb 0.00 in0.0 mm 0.00 in0.0 mm 0.00 in0.0 mm
02:40 PM 56.3°F13.5°C 46.3°F7.9°C 69% 0.7 mph W1.1 kmh W 4.5 mph7.2 kmh 30.22 in1023.4 mb 0.00 in0.0 mm 0.00 in0.0 mm 0.00 in0.0 mm
02:50 PM 55.4°F13.0°C 45.8°F7.7°C 70% 1.6 mph S2.6 kmh S 3.8 mph6.1 kmh 30.22 in1023.4 mb 0.00 in0.0 mm 0.00 in0.0 mm 0.00 in0.0 mm
03:00 PM 54.7°F12.6°C 45.8°F7.7°C 72% 0.7 mph SSE1.1 kmh SSE 2.2 mph3.5 kmh 30.22 in1023.4 mb 0.00 in0.0 mm 0.00 in0.0 mm 0.00 in0.0 mm
03:10 PM 54.1°F12.3°C 47.1°F8.4°C 77% 1.6 mph E2.6 kmh E 2.2 mph3.5 kmh 30.22 in1023.4 mb 0.00 in0.0 mm 0.00 in0.0 mm 0.00 in0.0 mm
03:20 PM 54.1°F12.3°C 47.1°F8.4°C 77% 0.7 mph WSW1.1 kmh WSW 2.2 mph3.5 kmh 30.21 in1023.0 mb 0.00 in0.0 mm 0.00 in0.0 mm 0.00 in0.0 mm
03:30 PM 54.1°F12.3°C 47.4°F8.6°C 78% Calm Calm 2.2 mph3.5 kmh 30.20 in1022.7 mb 0.00 in0.0 mm 0.00 in0.0 mm 0.00 in0.0 mm
03:40 PM 54.3°F12.4°C 48.3°F9.1°C 80% Calm Calm 1.6 mph2.6 kmh 30.20 in1022.7 mb 0.00 in0.0 mm 0.00 in0.0 mm 0.00 in0.0 mm
03:50 PM 54.5°F12.5°C 47.4°F8.6°C 77% Calm Calm 2.2 mph3.5 kmh 30.20 in1022.7 mb 0.00 in0.0 mm 0.00 in0.0 mm 0.00 in0.0 mm
04:00 PM 54.5°F12.5°C 47.1°F8.4°C 76% 0.7 mph S1.1 kmh S 3.1 mph5.0 kmh 30.20 in1022.7 mb 0.00 in0.0 mm 0.00 in0.0 mm 0.00 in0.0 mm
04:10 PM 54.5°F12.5°C 46.7°F8.2°C 75% 1.6 mph WSW2.6 kmh WSW 3.1 mph5.0 kmh 30.21 in1023.0 mb 0.00 in0.0 mm 0.00 in0.0 mm 0.00 in0.0 mm
04:20 PM 54.7°F12.6°C 46.6°F8.1°C 74% 0.7 mph WSW1.1 kmh WSW 3.8 mph6.1 kmh 30.20 in1022.7 mb 0.00 in0.0 mm 0.00 in0.0 mm 0.00 in0.0 mm
04:30 PM 54.9°F12.7°C 46.4°F8.0°C 73% Calm Calm 2.2 mph3.5 kmh 30.20 in1022.7 mb 0.00 in0.0 mm 0.00 in0.0 mm 0.00 in0.0 mm
04:40 PM 54.9°F12.7°C 46.7°F8.2°C 74% Calm Calm 2.2 mph3.5 kmh 30.20 in1022.7 mb 0.00 in0.0 mm 0.00 in0.0 mm 0.00 in0.0 mm
04:50 PM 54.3°F12.4°C 47.3°F8.5°C 77% 1.6 mph N2.6 kmh N 4.5 mph7.2 kmh 30.20 in1022.7 mb 0.00 in0.0 mm 0.00 in0.0 mm 0.00 in0.0 mm
05:00 PM 54.0°F12.2°C 46.9°F8.3°C 77% 0.7 mph NW1.1 kmh NW 3.8 mph6.1 kmh 30.19 in1022.4 mb 0.00 in0.0 mm 0.00 in0.0 mm 0.00 in0.0 mm
05:10 PM 53.6°F12.0°C 47.3°F8.5°C 79% 1.6 mph NNE2.6 kmh NNE 3.1 mph5.0 kmh 30.19 in1022.4 mb 0.00 in0.0 mm 0.00 in0.0 mm 0.00 in0.0 mm
05:20 PM 53.1°F11.7°C 47.4°F8.6°C 81% 2.2 mph NW3.5 kmh NW 4.5 mph7.2 kmh 30.19 in1022.4 mb 0.00 in0.0 mm 0.00 in0.0 mm 0.00 in0.0 mm
05:30 PM 52.5°F11.4°C 47.8°F8.8°C 84% 0.7 mph NE1.1 kmh NE 3.1 mph5.0 kmh 30.19 in1022.4 mb 0.00 in0.0 mm 0.00 in0.0 mm 0.00 in0.0 mm
05:40 PM 52.5°F11.4°C 48.1°F8.9°C 85% 0.7 mph ENE1.1 kmh ENE 2.2 mph3.5 kmh 30.19 in1022.4 mb 0.00 in0.0 mm 0.00 in0.0 mm 0.00 in0.0 mm
05:50 PM 52.3°F11.3°C 48.6°F9.2°C 87% 0.7 mph E1.1 kmh E 2.2 mph3.5 kmh 30.18 in1022.0 mb 0.00 in0.0 mm 0.00 in0.0 mm 0.00 in0.0 mm
06:00 PM 52.2°F11.2°C 48.7°F9.3°C 88% 1.6 mph ESE2.6 kmh ESE 2.2 mph3.5 kmh 30.17 in1021.7 mb 0.00 in0.0 mm 0.00 in0.0 mm 0.00 in0.0 mm
06:10 PM 52.0°F11.1°C 48.8°F9.3°C 89% 1.6 mph E2.6 kmh E 2.2 mph3.5 kmh 30.18 in1022.0 mb 0.00 in0.0 mm 0.00 in0.0 mm 0.00 in0.0 mm
06:20 PM 51.8°F11.0°C 49.0°F9.4°C 90% 0.7 mph E1.1 kmh E 2.2 mph3.5 kmh 30.18 in1022.0 mb 0.00 in0.0 mm 0.00 in0.0 mm 0.00 in0.0 mm
06:30 PM 51.6°F10.9°C 49.1°F9.5°C 91% 1.6 mph E2.6 kmh E 3.1 mph5.0 kmh 30.18 in1022.0 mb 0.00 in0.0 mm 0.00 in0.0 mm 0.00 in0.0 mm
06:40 PM 51.4°F10.8°C 49.2°F9.6°C 92% 0.7 mph E1.1 kmh E 3.1 mph5.0 kmh 30.19 in1022.4 mb 0.00 in0.0 mm 0.00 in0.0 mm 0.00 in0.0 mm
06:50 PM 51.4°F10.8°C 49.5°F9.7°C 93% 0.7 mph ESE1.1 kmh ESE 3.1 mph5.0 kmh 30.18 in1022.0 mb 0.00 in0.0 mm 0.00 in0.0 mm 0.00 in0.0 mm
07:00 PM 51.6°F10.9°C 49.7°F9.8°C 93% 1.6 mph E2.6 kmh E 2.2 mph3.5 kmh 30.18 in1022.0 mb 0.00 in0.0 mm 0.00 in0.0 mm 0.00 in0.0 mm
07:10 PM 51.8°F11.0°C 50.1°F10.1°C 94% 0.7 mph N1.1 kmh N 2.2 mph3.5 kmh 30.17 in1021.7 mb 0.00 in0.0 mm 0.00 in0.0 mm 0.00 in0.0 mm
07:20 PM 52.0°F11.1°C 50.3°F10.2°C 94% 1.6 mph E2.6 kmh E 2.2 mph3.5 kmh 30.17 in1021.7 mb 0.00 in0.0 mm 0.00 in0.0 mm 0.00 in0.0 mm
07:30 PM 52.0°F11.1°C 50.6°F10.3°C 95% 1.6 mph E2.6 kmh E 3.1 mph5.0 kmh 30.16 in1021.3 mb 0.00 in0.0 mm 0.00 in0.0 mm 0.00 in0.0 mm
07:40 PM 52.0°F11.1°C 50.6°F10.3°C 95% 0.7 mph ESE1.1 kmh ESE 2.2 mph3.5 kmh 30.17 in1021.7 mb 0.00 in0.0 mm 0.00 in0.0 mm 0.00 in0.0 mm
07:50 PM 52.2°F11.2°C 51.1°F10.6°C 96% 1.6 mph ESE2.6 kmh ESE 2.2 mph3.5 kmh 30.17 in1021.7 mb 0.00 in0.0 mm 0.00 in0.0 mm 0.00 in0.0 mm
08:00 PM 52.3°F11.3°C 51.2°F10.7°C 96% 0.7 mph E1.1 kmh E 2.2 mph3.5 kmh 30.17 in1021.7 mb 0.00 in0.0 mm 0.00 in0.0 mm 0.00 in0.0 mm
08:10 PM 52.5°F11.4°C 51.7°F10.9°C 97% Calm Calm 1.6 mph2.6 kmh 30.18 in1022.0 mb 0.00 in0.0 mm 0.00 in0.0 mm 0.00 in0.0 mm
08:20 PM 52.7°F11.5°C 51.9°F11.1°C 97% Calm Calm 2.2 mph3.5 kmh 30.18 in1022.0 mb 0.00 in0.0 mm 0.00 in0.0 mm 0.00 in0.0 mm
08:30 PM 53.1°F11.7°C 52.5°F11.4°C 98% 0.7 mph N1.1 kmh N 3.8 mph6.1 kmh 30.17 in1021.7 mb 0.00 in0.0 mm 0.00 in0.0 mm 0.00 in0.0 mm
08:40 PM 53.4°F11.9°C 52.9°F11.6°C 98% 0.7 mph SW1.1 kmh SW 3.8 mph6.1 kmh 30.16 in1021.3 mb 0.00 in0.0 mm 0.00 in0.0 mm 0.00 in0.0 mm
08:50 PM 53.4°F11.9°C 52.9°F11.6°C 98% 0.7 mph WSW1.1 kmh WSW 3.1 mph5.0 kmh 30.17 in1021.7 mb 0.00 in0.0 mm 0.00 in0.0 mm 0.00 in0.0 mm
09:00 PM 53.4°F11.9°C 52.9°F11.6°C 98% 1.6 mph E2.6 kmh E 3.1 mph5.0 kmh 30.16 in1021.3 mb 0.00 in0.0 mm 0.00 in0.0 mm 0.00 in0.0 mm
09:10 PM 53.6°F12.0°C 53.3°F11.8°C 99% 0.7 mph SW1.1 kmh SW 3.1 mph5.0 kmh 30.16 in1021.3 mb 0.00 in0.0 mm 0.00 in0.0 mm 0.00 in0.0 mm
09:20 PM 53.6°F12.0°C 53.3°F11.8°C 99% 0.7 mph NW1.1 kmh NW 2.2 mph3.5 kmh 30.16 in1021.3 mb 0.00 in0.0 mm 0.00 in0.0 mm 0.00 in0.0 mm
09:30 PM 53.6°F12.0°C 53.3°F11.8°C 99% 1.6 mph NW2.6 kmh NW 2.2 mph3.5 kmh 30.16 in1021.3 mb 0.00 in0.0 mm 0.00 in0.0 mm 0.00 in0.0 mm
09:40 PM 53.6°F12.0°C 53.3°F11.8°C 99% 0.7 mph NNW1.1 kmh NNW 2.2 mph3.5 kmh 30.16 in1021.3 mb 0.00 in0.0 mm 0.00 in0.0 mm 0.00 in0.0 mm
09:50 PM 53.8°F12.1°C 53.5°F11.9°C 99% 0.7 mph W1.1 kmh W 3.8 mph6.1 kmh 30.16 in1021.3 mb 0.00 in0.0 mm 0.00 in0.0 mm 0.00 in0.0 mm
10:00 PM 54.1°F12.3°C 53.9°F12.2°C 99% 0.7 mph SSW1.1 kmh SSW 3.1 mph5.0 kmh 30.15 in1021.0 mb 0.00 in0.0 mm 0.00 in0.0 mm 0.00 in0.0 mm
10:10 PM 54.1°F12.3°C 53.9°F12.2°C 99% 1.6 mph WSW2.6 kmh WSW 3.1 mph5.0 kmh 30.16 in1021.3 mb 0.00 in0.0 mm 0.00 in0.0 mm 0.00 in0.0 mm
10:20 PM 54.3°F12.4°C 54.1°F12.3°C 99% 0.7 mph WSW1.1 kmh WSW 3.8 mph6.1 kmh 30.16 in1021.3 mb 0.00 in0.0 mm 0.00 in0.0 mm 0.00 in0.0 mm
10:30 PM 54.3°F12.4°C 54.1°F12.3°C 99% 0.7 mph WNW1.1 kmh WNW 2.2 mph3.5 kmh 30.15 in1021.0 mb 0.00 in0.0 mm 0.00 in0.0 mm 0.00 in0.0 mm
10:40 PM 54.1°F12.3°C 53.9°F12.2°C 99% Calm Calm 1.6 mph2.6 kmh 30.15 in1021.0 mb 0.00 in0.0 mm 0.00 in0.0 mm 0.00 in0.0 mm
10:50 PM 54.1°F12.3°C 53.9°F12.2°C 99% 0.7 mph W1.1 kmh W 2.2 mph3.5 kmh 30.16 in1021.3 mb 0.00 in0.0 mm 0.00 in0.0 mm 0.00 in0.0 mm
11:00 PM 54.1°F12.3°C 53.9°F12.2°C 99% Calm Calm 2.2 mph3.5 kmh 30.16 in1021.3 mb 0.00 in0.0 mm 0.00 in0.0 mm 0.00 in0.0 mm
11:10 PM 54.1°F12.3°C 53.9°F12.2°C 99% 0.7 mph SW1.1 kmh SW 2.2 mph3.5 kmh 30.16 in1021.3 mb 0.00 in0.0 mm 0.00 in0.0 mm 0.00 in0.0 mm
11:20 PM 54.1°F12.3°C 53.9°F12.2°C 99% 0.7 mph WSW1.1 kmh WSW 4.5 mph7.2 kmh 30.16 in1021.3 mb 0.00 in0.0 mm 0.00 in0.0 mm 0.00 in0.0 mm
11:30 PM 54.1°F12.3°C 53.9°F12.2°C 99% Calm Calm 1.6 mph2.6 kmh 30.15 in1021.0 mb 0.00 in0.0 mm 0.00 in0.0 mm 0.00 in0.0 mm
11:40 PM 54.1°F12.3°C 53.9°F12.2°C 99% Calm Calm 2.2 mph3.5 kmh 30.16 in1021.3 mb 0.00 in0.0 mm 0.00 in0.0 mm 0.00 in0.0 mm
11:50 PM 54.1°F12.3°C 53.9°F12.2°C 99% Calm Calm 0.7 mph1.1 kmh 30.15 in1021.0 mb 0.00 in0.0 mm 0.00 in0.0 mm 0.00 in0.0 mm